x

Diamond Shoals (41025) Wave Buoy

10:50pm - Thu 30th Jul 2015 All times are EDT. -4 hours from GMT.

  • Sig Wave height 4.9ft
  • Swell Direction
  • Peak Period 8s
  • Average Period 5s
  • Wind
    18mph, 20mph gusts
  • Sea Temp 86°f
  • 空気 Temp 83°f
  • Sea Pressure 1013.1mb
  • Diamond Shoals
  • Diamond Shoals

More Historic Weather Station data

Upgrade to MSW Pro to gain access to the past 30 days of data for over 8000 Wavebouys and Weather Stations around the globe.

Join Pro

Comparision Forecast

View Surf forecast
   
Thu 07/30 10:50pm 5ft 8s 5s 18 20 mph 1013.1mb 86f 83f
9:50pm 4.5ft 8s 5s 18 20 mph 1013.1mb 86f 83f
8:50pm 4.5ft 8s 5s 18 22 mph 1012.8mb 86f 83f
7:50pm 4.5ft 6s 5s 20 22 mph 1012.4mb 86f 83f
6:50pm 4.5ft 6s 5s 18 22 mph 1012.4mb 86f 83f
5:50pm 4.5ft 7s 5s 20 25 mph 1012.3mb 86f 83f
4:50pm 4.5ft 8s 5s 18 22 mph 1012.7mb 86f 84f
3:50pm 4.5ft 5s 5s 20 25 mph 1013mb 86f 84f
2:50pm 4.5ft 5s 4s 22 29 mph 1013.8mb 86f 84f
1:50pm 4.5ft 5s 5s 22 27 mph 1014.3mb 85f 84f
12:50pm 4ft 5s  -  20 22 mph 1015.1mb 85f 84f
11:50am 4ft 5s 5s 20 25 mph 1015.1mb 85f 84f
10:50am 4ft 8s 5s 22 29 mph 1014.7mb 85f 83f
9:50am 4ft 7s 5s 20 25 mph 1014.3mb 85f 84f
8:50am 3.5ft 5s 5s 20 22 mph 1014.3mb 85f 84f
7:50am 3.5ft 9s 5s 16 18 mph 1014mb 85f 84f
6:50am 3.5ft 6s 5s 16 20 mph 1013.5mb 85f 83f
5:50am 3.5ft 9s 5s 16 18 mph 1013.2mb 85f 84f
4:50am 3.5ft 7s 5s 13 16 mph 1013.3mb 85f 83f
3:50am 3.5ft 7s 5s 13 16 mph 1013.9mb 85f 83f
2:50am 3.5ft 7s 5s 16 18 mph 1014mb 85f 83f
1:50am 3.5ft 6s 5s 13 18 mph 1014.3mb 85f 83f
12:50am 3.5ft 6s 5s 11 13 mph 1014.9mb 85f 83f
Wed 07/29 11:50pm 4ft 6s 5s 11
mph
1015.1mb 85f 83f
10:50pm 4ft 6s 5s 16 18 mph 1014.9mb 85f 83f
9:50pm 4ft 6s 5s 16 18 mph 1015mb 85f 82f
7:50pm 4ft 6s 5s 18 22 mph 1014.3mb 85f 82f
6:50pm 4.5ft 6s 5s 13 18 mph 1014.7mb 85f 82f
5:50pm 4ft 6s 5s 16 20 mph 1014.7mb 85f 82f